createdAt,value
2019-03-31T00:00:49.424Z,12.61
2019-03-31T00:01:49.336Z,12.58
2019-03-31T00:02:49.315Z,12.53
2019-03-31T00:03:49.294Z,12.55
2019-03-31T00:04:49.276Z,12.53
2019-03-31T00:05:49.254Z,12.58
2019-03-31T00:06:49.237Z,12.48
2019-03-31T00:07:49.218Z,12.53
2019-03-31T00:08:49.194Z,12.43
2019-03-31T00:09:49.174Z,12.37
2019-03-31T00:10:49.154Z,12.30
2019-03-31T00:11:49.153Z,12.32
2019-03-31T00:12:49.115Z,12.20
2019-03-31T00:13:49.096Z,12.15
2019-03-31T00:14:49.077Z,12.17
2019-03-31T00:15:49.060Z,12.12
2019-03-31T00:16:52.311Z,12.18
2019-03-31T00:17:49.030Z,12.14
2019-03-31T00:18:48.995Z,12.21
2019-03-31T00:19:49.075Z,12.17
2019-03-31T00:20:48.957Z,12.11
2019-03-31T00:21:48.946Z,12.18
2019-03-31T00:22:48.916Z,12.12
2019-03-31T00:23:48.931Z,12.14
2019-03-31T00:24:48.882Z,12.12
2019-03-31T00:25:48.867Z,12.08
2019-03-31T00:26:48.835Z,12.14
2019-03-31T00:27:48.815Z,12.12
2019-03-31T00:28:48.799Z,12.11
2019-03-31T00:29:48.774Z,12.14
2019-03-31T00:30:48.755Z,12.11
2019-03-31T00:31:48.734Z,12.10
2019-03-31T00:32:48.715Z,12.11
2019-03-31T00:33:48.698Z,12.12
2019-03-31T00:34:48.676Z,12.17
2019-03-31T00:35:48.660Z,12.15
2019-03-31T00:36:48.633Z,12.14
2019-03-31T00:37:48.614Z,12.03
2019-03-31T00:38:48.603Z,12.11
2019-03-31T00:39:48.585Z,12.11
2019-03-31T00:40:48.554Z,12.15
2019-03-31T00:41:48.542Z,12.14
2019-03-31T00:42:48.515Z,12.11
2019-03-31T00:43:48.495Z,12.20
2019-03-31T00:44:48.474Z,12.21
2019-03-31T00:45:48.453Z,12.21
2019-03-31T00:46:48.438Z,12.21
2019-03-31T00:47:48.413Z,12.23
2019-03-31T00:48:48.394Z,12.26
2019-03-31T00:49:48.375Z,12.36
2019-03-31T00:50:48.353Z,12.35
2019-03-31T00:51:48.332Z,12.32
2019-03-31T00:52:48.313Z,12.18
2019-03-31T00:53:48.298Z,12.23
2019-03-31T00:54:48.273Z,12.23
2019-03-31T00:55:48.254Z,12.18
2019-03-31T00:56:48.244Z,12.21
2019-03-31T00:57:48.213Z,12.12
2019-03-31T00:58:48.192Z,12.21
2019-03-31T00:59:48.171Z,12.21
2019-03-31T01:00:48.153Z,12.15
2019-03-31T01:01:48.133Z,12.11
2019-03-31T01:02:48.130Z,12.12
2019-03-31T01:03:48.091Z,12.14
2019-03-31T01:04:48.071Z,12.10
2019-03-31T01:05:48.053Z,12.21
2019-03-31T01:06:48.034Z,12.07
2019-03-31T01:07:48.010Z,12.12
2019-03-31T01:08:47.993Z,12.20
2019-03-31T01:09:47.996Z,12.17
2019-03-31T01:10:47.960Z,12.20
2019-03-31T01:11:47.931Z,12.17
2019-03-31T01:12:47.914Z,12.15
2019-03-31T01:13:47.892Z,12.23
2019-03-31T01:14:47.872Z,12.17
2019-03-31T01:15:47.852Z,12.18
2019-03-31T01:16:47.830Z,12.12
2019-03-31T01:17:47.813Z,12.10
2019-03-31T01:18:47.793Z,12.02
2019-03-31T01:19:47.768Z,12.08
2019-03-31T01:20:47.750Z,11.99
2019-03-31T01:21:47.728Z,11.93
2019-03-31T01:22:47.708Z,11.85
2019-03-31T01:23:47.687Z,11.78
2019-03-31T01:24:47.668Z,11.83
2019-03-31T01:25:47.647Z,11.85
2019-03-31T01:26:47.628Z,11.67
2019-03-31T01:27:47.615Z,11.74
2019-03-31T01:28:47.594Z,11.63
2019-03-31T01:29:47.566Z,11.78
2019-03-31T01:30:47.555Z,11.78
2019-03-31T01:31:50.618Z,11.74
2019-03-31T01:32:47.506Z,11.73
2019-03-31T01:33:47.488Z,11.62
2019-03-31T01:34:47.470Z,11.59
2019-03-31T01:35:47.444Z,11.65
2019-03-31T01:36:47.424Z,11.51
2019-03-31T01:37:47.404Z,11.55
2019-03-31T01:38:47.386Z,11.51
2019-03-31T01:39:47.365Z,11.51
2019-03-31T01:40:47.343Z,11.52
2019-03-31T01:41:47.327Z,11.51
2019-03-31T01:42:47.303Z,11.48
2019-03-31T01:43:47.284Z,11.53
2019-03-31T01:44:47.267Z,11.49
2019-03-31T01:45:47.243Z,11.59
2019-03-31T01:46:47.221Z,11.60
2019-03-31T01:47:47.209Z,11.67
2019-03-31T01:48:47.181Z,11.78
2019-03-31T01:49:47.160Z,11.70
2019-03-31T01:50:47.142Z,11.81
2019-03-31T01:51:47.119Z,11.68
2019-03-31T01:52:47.107Z,11.85
2019-03-31T01:53:47.089Z,11.80
2019-03-31T01:54:47.059Z,11.81
2019-03-31T01:55:47.040Z,11.80
2019-03-31T01:56:47.017Z,11.73
2019-03-31T01:57:47.000Z,11.77
2019-03-31T01:58:46.978Z,11.74
2019-03-31T01:59:46.965Z,11.74
2019-03-31T02:00:46.936Z,11.73
2019-03-31T02:01:46.923Z,11.76
2019-03-31T02:02:46.902Z,11.74
2019-03-31T02:03:46.872Z,11.68
2019-03-31T02:04:46.855Z,11.60
2019-03-31T02:05:46.838Z,11.56
2019-03-31T02:06:46.812Z,11.67
2019-03-31T02:07:46.792Z,11.58
2019-03-31T02:08:46.775Z,11.59
2019-03-31T02:09:46.750Z,11.52
2019-03-31T02:10:46.730Z,11.49
2019-03-31T02:11:46.710Z,11.49
2019-03-31T02:12:46.688Z,11.51
2019-03-31T02:13:46.669Z,11.44
2019-03-31T02:14:46.648Z,11.49
2019-03-31T02:15:46.633Z,11.38
2019-03-31T02:16:46.606Z,11.40
2019-03-31T02:17:46.594Z,11.43
2019-03-31T02:18:46.570Z,11.38
2019-03-31T02:19:46.543Z,11.35
2019-03-31T02:20:46.524Z,11.23
2019-03-31T02:21:46.502Z,11.25
2019-03-31T02:22:46.482Z,11.25
2019-03-31T02:23:46.464Z,11.19
2019-03-31T02:24:46.440Z,11.20
2019-03-31T02:25:46.419Z,11.20
2019-03-31T02:26:46.406Z,11.18
2019-03-31T02:27:46.386Z,11.22
2019-03-31T02:28:46.358Z,11.23
2019-03-31T02:29:46.338Z,11.34
2019-03-31T02:30:46.316Z,11.25
2019-03-31T02:31:46.297Z,11.31
2019-03-31T02:32:46.276Z,11.34
2019-03-31T02:33:46.256Z,11.27
2019-03-31T02:34:46.238Z,11.22
2019-03-31T02:35:46.213Z,11.27
2019-03-31T02:36:46.197Z,11.22
2019-03-31T02:37:46.183Z,11.30
2019-03-31T02:38:46.164Z,11.23
2019-03-31T02:39:46.130Z,11.33
2019-03-31T02:40:46.117Z,11.23
2019-03-31T02:41:46.090Z,11.12
2019-03-31T02:42:46.069Z,11.13
2019-03-31T02:43:46.048Z,11.04
2019-03-31T02:44:46.027Z,11.01
2019-03-31T02:45:46.007Z,11.07
2019-03-31T02:46:45.984Z,11.16
2019-03-31T02:47:45.965Z,11.07
2019-03-31T02:48:45.946Z,11.07
2019-03-31T02:49:45.925Z,11.04
2019-03-31T02:50:45.904Z,11.05
2019-03-31T02:51:45.880Z,11.02
2019-03-31T02:52:45.863Z,11.00
2019-03-31T02:53:45.848Z,10.89
2019-03-31T02:54:45.819Z,11.00
2019-03-31T02:55:45.794Z,10.94
2019-03-31T02:56:45.777Z,10.90
2019-03-31T02:57:45.772Z,10.90
2019-03-31T02:58:45.737Z,10.92
2019-03-31T02:59:45.717Z,10.86
2019-03-31T03:00:45.713Z,10.86
2019-03-31T03:01:45.669Z,10.76
2019-03-31T03:02:45.648Z,10.75
2019-03-31T03:03:45.624Z,10.75
2019-03-31T03:04:45.619Z,10.79
2019-03-31T03:05:45.599Z,10.77
2019-03-31T03:06:45.561Z,10.76
2019-03-31T03:07:45.547Z,10.76
2019-03-31T03:08:45.520Z,10.68
2019-03-31T03:09:45.497Z,10.65
2019-03-31T03:10:45.476Z,10.69
2019-03-31T03:11:45.454Z,10.64
2019-03-31T03:12:45.438Z,10.64
2019-03-31T03:13:45.413Z,10.68
2019-03-31T03:14:45.393Z,10.68
2019-03-31T03:15:45.378Z,10.69
2019-03-31T03:16:45.356Z,10.71
2019-03-31T03:17:45.336Z,10.69
2019-03-31T03:18:45.306Z,10.67
2019-03-31T03:19:45.298Z,10.51
2019-03-31T03:20:45.269Z,10.55
2019-03-31T03:21:45.242Z,10.65
2019-03-31T03:22:45.224Z,10.53
2019-03-31T03:23:45.202Z,10.42
2019-03-31T03:24:45.183Z,10.39
2019-03-31T03:25:55.800Z,10.46
2019-03-31T03:26:45.137Z,10.46
2019-03-31T03:27:45.125Z,10.43
2019-03-31T03:28:45.107Z,10.48
2019-03-31T03:29:45.075Z,10.30
2019-03-31T03:30:45.349Z,10.46
2019-03-31T03:31:45.030Z,10.28
2019-03-31T03:33:11.880Z,10.38
2019-03-31T03:33:44.991Z,10.39
2019-03-31T03:34:44.971Z,10.39
2019-03-31T03:35:44.993Z,10.36
2019-03-31T03:36:44.921Z,10.39
2019-03-31T03:37:44.904Z,10.24
2019-03-31T03:38:44.886Z,10.21
2019-03-31T03:39:44.860Z,10.25
2019-03-31T03:40:44.840Z,10.23
2019-03-31T03:41:44.832Z,10.13
2019-03-31T03:42:44.796Z,10.17
2019-03-31T03:43:54.986Z,10.24
2019-03-31T03:44:44.762Z,10.13
2019-03-31T03:45:44.735Z,10.15
2019-03-31T03:46:44.721Z,10.12
2019-03-31T03:47:44.687Z,10.24
2019-03-31T03:48:44.672Z,10.15
2019-03-31T03:49:44.650Z,10.09
2019-03-31T03:50:44.634Z,10.06
2019-03-31T03:51:44.602Z,10.06
2019-03-31T03:52:44.598Z,10.02
2019-03-31T03:53:44.560Z,10.03
2019-03-31T03:54:44.538Z,10.06
2019-03-31T03:55:44.516Z,9.95
2019-03-31T03:56:44.499Z,10.00
2019-03-31T03:57:44.477Z,9.92
2019-03-31T03:58:44.452Z,9.92
2019-03-31T03:59:44.429Z,9.90
2019-03-31T04:00:44.626Z,9.99
2019-03-31T04:01:44.822Z,9.99
2019-03-31T04:02:44.377Z,9.97
2019-03-31T04:03:44.351Z,9.94
2019-03-31T04:04:44.640Z,9.92
2019-03-31T04:05:44.317Z,9.97
2019-03-31T04:06:44.290Z,9.92
2019-03-31T04:07:44.259Z,9.88
2019-03-31T04:08:44.240Z,9.92
2019-03-31T04:09:44.215Z,9.90
2019-03-31T04:10:44.363Z,9.91
2019-03-31T04:11:44.179Z,9.85
2019-03-31T04:12:44.148Z,9.85
2019-03-31T04:13:44.147Z,9.84
2019-03-31T04:14:44.106Z,9.80
2019-03-31T04:15:44.103Z,9.84
2019-03-31T04:16:44.064Z,9.94
2019-03-31T04:17:44.041Z,9.82
2019-03-31T04:18:44.021Z,9.80
2019-03-31T04:19:44.010Z,9.80
2019-03-31T04:20:43.979Z,9.91
2019-03-31T04:21:43.964Z,9.77
2019-03-31T04:22:43.935Z,9.82
2019-03-31T04:23:43.922Z,9.87
2019-03-31T04:24:43.894Z,9.87
2019-03-31T04:25:43.870Z,9.81
2019-03-31T04:26:43.910Z,9.84
2019-03-31T04:27:43.833Z,9.77
2019-03-31T04:28:43.807Z,9.82
2019-03-31T04:29:43.785Z,9.76
2019-03-31T04:30:43.760Z,9.77
2019-03-31T04:31:43.737Z,9.85
2019-03-31T04:32:43.719Z,9.88
2019-03-31T04:33:51.540Z,9.77
2019-03-31T04:34:43.699Z,9.74
2019-03-31T04:35:43.651Z,9.85
2019-03-31T04:36:43.630Z,9.70
2019-03-31T04:37:43.607Z,9.73
2019-03-31T04:38:43.594Z,9.74
2019-03-31T04:39:43.572Z,9.74
2019-03-31T04:40:43.549Z,9.72
2019-03-31T04:41:43.519Z,9.72
2019-03-31T04:42:43.503Z,9.76
2019-03-31T04:43:43.476Z,9.77
2019-03-31T04:44:43.459Z,9.70
2019-03-31T04:45:43.438Z,9.67
2019-03-31T04:46:43.412Z,9.76
2019-03-31T04:47:43.389Z,9.81
2019-03-31T04:48:43.374Z,9.77
2019-03-31T04:49:43.354Z,9.76
2019-03-31T04:50:43.325Z,9.72
2019-03-31T04:51:43.309Z,9.72
2019-03-31T04:52:43.285Z,9.76
2019-03-31T04:53:43.258Z,9.69
2019-03-31T04:54:43.237Z,9.69
2019-03-31T04:55:43.215Z,9.70
2019-03-31T04:56:43.197Z,9.63
2019-03-31T04:57:43.173Z,9.66
2019-03-31T04:58:43.158Z,9.55
2019-03-31T04:59:43.129Z,9.59
2019-03-31T05:00:43.122Z,9.66
2019-03-31T05:01:43.084Z,9.62
2019-03-31T05:02:43.063Z,9.69
2019-03-31T05:03:43.047Z,9.73
2019-03-31T05:04:43.022Z,9.63
2019-03-31T05:05:42.999Z,9.62
2019-03-31T05:06:42.976Z,9.42
2019-03-31T05:07:42.954Z,9.42
2019-03-31T05:08:42.935Z,9.48
2019-03-31T05:09:42.911Z,9.42
2019-03-31T05:10:42.905Z,9.40
2019-03-31T05:11:42.864Z,9.48
2019-03-31T05:12:42.847Z,9.45
2019-03-31T05:13:42.822Z,9.45
2019-03-31T05:14:42.800Z,9.47
2019-03-31T05:15:42.776Z,9.47
2019-03-31T05:16:42.757Z,9.47
2019-03-31T05:17:42.733Z,9.47
2019-03-31T05:18:42.714Z,9.55
2019-03-31T05:19:42.690Z,9.48
2019-03-31T05:20:42.670Z,9.45
2019-03-31T05:21:42.648Z,9.52
2019-03-31T05:22:42.650Z,9.48
2019-03-31T05:23:42.604Z,9.49
2019-03-31T05:24:42.582Z,9.45
2019-03-31T05:25:42.558Z,9.44
2019-03-31T05:26:42.536Z,9.40
2019-03-31T05:27:42.517Z,9.30
2019-03-31T05:28:44.203Z,9.27
2019-03-31T05:29:42.469Z,9.30
2019-03-31T05:30:42.448Z,9.30
2019-03-31T05:31:42.425Z,9.27
2019-03-31T05:32:42.403Z,9.30
2019-03-31T05:33:42.387Z,9.18
2019-03-31T05:34:42.369Z,9.12
2019-03-31T05:35:42.338Z,9.05
2019-03-31T05:36:42.322Z,9.18
2019-03-31T05:37:50.776Z,9.00
2019-03-31T05:38:42.281Z,9.09
2019-03-31T05:39:42.264Z,9.05
2019-03-31T05:40:42.227Z,9.00
2019-03-31T05:41:42.204Z,8.92
2019-03-31T05:42:42.181Z,9.02
2019-03-31T05:43:42.167Z,9.11
2019-03-31T05:44:42.138Z,8.97
2019-03-31T05:45:42.114Z,9.11
2019-03-31T05:46:42.093Z,9.00
2019-03-31T05:47:42.071Z,9.08
2019-03-31T05:48:42.056Z,9.08
2019-03-31T05:49:42.031Z,9.03
2019-03-31T05:50:42.004Z,9.03
2019-03-31T05:51:41.981Z,9.11
2019-03-31T05:52:41.961Z,8.99
2019-03-31T05:53:41.940Z,8.99
2019-03-31T05:54:42.015Z,9.11
2019-03-31T05:55:41.891Z,9.02
2019-03-31T05:56:41.871Z,9.08
2019-03-31T05:57:41.851Z,9.11
2019-03-31T05:58:41.827Z,9.00
2019-03-31T05:59:41.852Z,9.03
2019-03-31T06:00:41.780Z,8.86
2019-03-31T06:01:41.758Z,8.81
2019-03-31T06:02:41.738Z,8.68
2019-03-31T06:03:41.713Z,8.78
2019-03-31T06:04:41.691Z,8.75
2019-03-31T06:05:41.669Z,8.72
2019-03-31T06:06:41.646Z,8.72
2019-03-31T06:07:41.621Z,8.82
2019-03-31T06:08:41.601Z,8.81
2019-03-31T06:09:41.584Z,8.86
2019-03-31T06:10:41.559Z,8.95
2019-03-31T06:11:41.534Z,8.96
2019-03-31T06:12:41.527Z,9.05
2019-03-31T06:13:41.493Z,9.02
2019-03-31T06:14:41.468Z,9.08
2019-03-31T06:15:41.451Z,9.18
2019-03-31T06:16:41.424Z,9.03
2019-03-31T06:17:41.399Z,9.05
2019-03-31T06:18:41.378Z,9.05
2019-03-31T06:19:41.364Z,9.11
2019-03-31T06:20:41.332Z,9.29
2019-03-31T06:21:41.311Z,9.22
2019-03-31T06:22:41.290Z,9.16
2019-03-31T06:23:41.272Z,9.21
2019-03-31T06:24:41.247Z,9.24
2019-03-31T06:25:41.224Z,9.24
2019-03-31T06:26:41.201Z,9.31
2019-03-31T06:27:41.179Z,9.19
2019-03-31T06:28:41.157Z,9.22
2019-03-31T06:29:41.132Z,9.26
2019-03-31T06:30:41.110Z,9.21
2019-03-31T06:31:41.090Z,9.30
2019-03-31T06:32:41.075Z,9.22
2019-03-31T06:33:41.044Z,9.21
2019-03-31T06:34:47.363Z,9.29
2019-03-31T06:35:41.067Z,9.29
2019-03-31T06:36:40.979Z,9.40
2019-03-31T06:37:40.955Z,9.45
2019-03-31T06:38:40.934Z,9.44
2019-03-31T06:39:40.916Z,9.47
2019-03-31T06:40:40.891Z,9.40
2019-03-31T06:41:40.867Z,9.51
2019-03-31T06:42:40.858Z,9.64
2019-03-31T06:43:40.828Z,9.62
2019-03-31T06:44:40.802Z,9.70
2019-03-31T06:45:40.792Z,9.76
2019-03-31T06:46:40.762Z,9.88
2019-03-31T06:47:40.736Z,9.92
2019-03-31T06:48:40.715Z,10.06
2019-03-31T06:49:40.716Z,10.02
2019-03-31T06:50:40.672Z,10.20
2019-03-31T06:51:40.650Z,10.18
2019-03-31T06:52:40.629Z,10.15
2019-03-31T06:53:40.618Z,10.24
2019-03-31T06:54:40.586Z,10.41
2019-03-31T06:55:40.564Z,10.41
2019-03-31T06:56:40.542Z,10.59
2019-03-31T06:57:40.527Z,10.61
2019-03-31T06:58:40.501Z,10.59
2019-03-31T06:59:40.482Z,10.61
2019-03-31T07:00:40.468Z,10.48
2019-03-31T07:01:40.437Z,10.51
2019-03-31T07:02:40.418Z,10.58
2019-03-31T07:03:40.394Z,10.58
2019-03-31T07:04:40.383Z,10.67
2019-03-31T07:05:40.358Z,10.69
2019-03-31T07:06:40.385Z,10.58
2019-03-31T07:07:40.311Z,10.71
2019-03-31T07:08:40.297Z,10.58
2019-03-31T07:09:40.272Z,10.58
2019-03-31T07:10:40.249Z,10.55
2019-03-31T07:11:40.229Z,10.82
2019-03-31T07:12:40.210Z,10.82
2019-03-31T07:13:40.199Z,10.87
2019-03-31T07:14:40.177Z,10.80
2019-03-31T07:15:40.157Z,10.76
2019-03-31T07:16:40.128Z,10.90
2019-03-31T07:17:40.109Z,10.89
2019-03-31T07:18:40.095Z,10.77
2019-03-31T07:19:40.071Z,10.86
2019-03-31T07:20:40.045Z,10.98
2019-03-31T07:21:40.027Z,11.16
2019-03-31T07:22:40.015Z,11.15
2019-03-31T07:23:39.985Z,11.19
2019-03-31T07:24:40.009Z,11.25
2019-03-31T07:25:40.046Z,11.31
2019-03-31T07:26:39.929Z,11.13
2019-03-31T07:27:39.905Z,11.31
2019-03-31T07:28:39.884Z,11.56
2019-03-31T07:29:39.865Z,11.55
2019-03-31T07:30:39.850Z,11.63
2019-03-31T07:31:39.832Z,11.59
2019-03-31T07:32:39.803Z,11.65
2019-03-31T07:33:39.790Z,11.60
2019-03-31T07:34:39.780Z,11.62
2019-03-31T07:35:39.746Z,11.55
2019-03-31T07:36:39.735Z,11.40
2019-03-31T07:37:47.115Z,11.48
2019-03-31T07:38:39.918Z,11.49
2019-03-31T07:39:39.977Z,11.48
2019-03-31T07:40:39.721Z,11.53
2019-03-31T07:41:39.731Z,11.58
2019-03-31T07:42:39.613Z,11.60
2019-03-31T07:43:39.587Z,11.68
2019-03-31T07:44:39.580Z,11.77
2019-03-31T07:45:39.550Z,11.74
2019-03-31T07:46:39.532Z,11.74
2019-03-31T07:47:39.519Z,11.51
2019-03-31T07:48:39.497Z,11.49
2019-03-31T07:49:39.482Z,11.38
2019-03-31T07:50:39.453Z,11.45
2019-03-31T07:51:39.434Z,11.41
2019-03-31T07:52:39.429Z,11.44
2019-03-31T07:53:39.395Z,11.56
2019-03-31T07:54:39.391Z,11.49
2019-03-31T07:55:39.358Z,11.56
2019-03-31T07:56:39.338Z,11.63
2019-03-31T07:57:39.398Z,11.78
2019-03-31T07:58:39.428Z,11.83
2019-03-31T07:59:39.322Z,11.81
2019-03-31T08:00:39.261Z,11.93
2019-03-31T08:01:39.241Z,11.89
2019-03-31T08:02:39.221Z,11.80
2019-03-31T08:03:39.199Z,11.74
2019-03-31T08:04:39.185Z,11.31
2019-03-31T08:05:39.173Z,11.10
2019-03-31T08:06:39.143Z,11.07
2019-03-31T08:07:39.125Z,11.07
2019-03-31T08:08:39.112Z,11.02
2019-03-31T08:09:39.693Z,10.92
2019-03-31T08:10:39.066Z,10.94
2019-03-31T08:11:39.046Z,11.02
2019-03-31T08:12:39.034Z,10.98
2019-03-31T08:13:39.010Z,11.04
2019-03-31T08:14:38.986Z,10.92
2019-03-31T08:15:38.973Z,10.89
2019-03-31T08:16:38.956Z,10.94
2019-03-31T08:17:38.952Z,11.02
2019-03-31T08:18:38.911Z,11.05
2019-03-31T08:19:38.889Z,11.13
2019-03-31T08:20:38.876Z,11.13
2019-03-31T08:21:38.853Z,11.02
2019-03-31T08:22:38.845Z,11.07
2019-03-31T08:23:38.809Z,11.13
2019-03-31T08:24:38.790Z,11.15
2019-03-31T08:25:38.785Z,11.16
2019-03-31T08:26:38.750Z,11.10
2019-03-31T08:27:38.731Z,11.13
2019-03-31T08:28:38.710Z,11.15
2019-03-31T08:29:38.689Z,11.08
2019-03-31T08:30:38.670Z,11.08
2019-03-31T08:31:38.650Z,11.07
2019-03-31T08:32:38.629Z,11.10
2019-03-31T08:33:38.619Z,10.87
2019-03-31T08:34:38.597Z,10.84
2019-03-31T08:35:47.147Z,10.84
2019-03-31T08:36:38.548Z,10.75
2019-03-31T08:37:38.543Z,10.83
2019-03-31T08:38:38.509Z,10.87
2019-03-31T08:39:38.495Z,10.75
2019-03-31T08:40:38.468Z,10.79
2019-03-31T08:41:38.448Z,10.89
2019-03-31T08:42:38.445Z,10.87
2019-03-31T08:43:38.406Z,10.97
2019-03-31T08:44:38.388Z,10.95
2019-03-31T08:45:38.366Z,11.02
2019-03-31T08:46:38.351Z,11.12
2019-03-31T08:47:38.333Z,10.84
2019-03-31T08:48:38.308Z,10.83
2019-03-31T08:49:38.295Z,10.75
2019-03-31T08:50:38.276Z,10.80
2019-03-31T08:51:38.242Z,10.86
2019-03-31T08:52:38.231Z,10.86
2019-03-31T08:53:38.210Z,11.05
2019-03-31T08:54:38.181Z,11.20
2019-03-31T08:55:38.165Z,11.52
2019-03-31T08:56:38.483Z,11.78
2019-03-31T08:57:38.127Z,12.17
2019-03-31T08:58:38.104Z,12.14
2019-03-31T08:59:38.096Z,12.21
2019-03-31T09:00:38.059Z,12.40
2019-03-31T09:01:38.064Z,12.75
2019-03-31T09:02:38.021Z,12.99
2019-03-31T09:03:38.000Z,13.12
2019-03-31T09:04:37.992Z,13.31
2019-03-31T09:05:37.962Z,13.09
2019-03-31T09:06:37.950Z,12.88
2019-03-31T09:07:39.048Z,12.57
2019-03-31T09:08:37.903Z,12.20
2019-03-31T09:09:37.887Z,12.17
2019-03-31T09:10:37.899Z,11.89
2019-03-31T09:11:37.856Z,11.78
2019-03-31T09:12:37.829Z,11.74
2019-03-31T09:13:37.810Z,11.81
2019-03-31T09:14:37.796Z,11.65
2019-03-31T09:15:37.772Z,11.53
2019-03-31T09:16:37.761Z,11.59
2019-03-31T09:17:37.741Z,11.76
2019-03-31T09:18:37.715Z,11.55
2019-03-31T09:19:37.696Z,11.38
2019-03-31T09:20:37.690Z,11.33
2019-03-31T09:21:37.656Z,11.43
2019-03-31T09:22:37.641Z,11.52
2019-03-31T09:23:37.628Z,11.63
2019-03-31T09:24:37.600Z,11.65
2019-03-31T09:25:37.585Z,11.77
2019-03-31T09:26:37.582Z,11.95
2019-03-31T09:27:37.542Z,12.18
2019-03-31T09:28:37.529Z,12.53
2019-03-31T09:29:37.510Z,12.57
2019-03-31T09:30:37.484Z,12.80
2019-03-31T09:31:37.462Z,12.76
2019-03-31T09:32:37.469Z,12.62
2019-03-31T09:33:39.430Z,12.62
2019-03-31T09:34:37.407Z,12.30
2019-03-31T09:35:37.397Z,12.23
2019-03-31T09:36:37.375Z,12.00
2019-03-31T09:37:37.351Z,11.73
2019-03-31T09:38:37.325Z,11.53
2019-03-31T09:39:37.312Z,11.40
2019-03-31T09:40:37.311Z,11.35
2019-03-31T09:41:37.268Z,11.16
2019-03-31T09:42:37.252Z,11.23
2019-03-31T09:43:37.238Z,11.27
2019-03-31T09:44:37.232Z,11.45
2019-03-31T09:45:37.198Z,11.60
2019-03-31T09:46:37.194Z,11.65
2019-03-31T09:47:37.152Z,11.51
2019-03-31T09:48:37.139Z,11.55
2019-03-31T09:49:37.112Z,11.60
2019-03-31T09:50:37.106Z,11.68
2019-03-31T09:51:37.090Z,11.59
2019-03-31T09:52:37.051Z,11.44
2019-03-31T09:53:37.040Z,11.59
2019-03-31T09:54:37.018Z,11.58
2019-03-31T09:55:36.991Z,11.63
2019-03-31T09:56:37.004Z,11.74
2019-03-31T09:57:36.981Z,11.83
2019-03-31T09:58:36.936Z,11.86
2019-03-31T09:59:36.922Z,11.85
2019-03-31T10:00:36.900Z,11.86
2019-03-31T10:01:36.890Z,11.81
2019-03-31T10:02:36.863Z,11.86
2019-03-31T10:03:36.836Z,12.03
2019-03-31T10:04:36.886Z,12.00
2019-03-31T10:05:36.796Z,11.97
2019-03-31T10:06:36.788Z,11.97
2019-03-31T10:07:36.763Z,12.07
2019-03-31T10:08:36.743Z,12.12
2019-03-31T10:09:36.810Z,12.12
2019-03-31T10:10:36.712Z,12.17
2019-03-31T10:11:36.675Z,12.11
2019-03-31T10:12:36.780Z,12.10
2019-03-31T10:13:36.686Z,12.03
2019-03-31T10:14:36.617Z,12.10
2019-03-31T10:15:36.609Z,12.03
2019-03-31T10:16:36.580Z,11.89
2019-03-31T10:17:36.583Z,11.86
2019-03-31T10:18:36.549Z,11.88
2019-03-31T10:19:36.531Z,11.88
2019-03-31T10:20:36.510Z,11.99
2019-03-31T10:21:36.483Z,11.99
2019-03-31T10:22:36.476Z,12.15
2019-03-31T10:23:36.442Z,12.08
2019-03-31T10:24:36.428Z,11.99
2019-03-31T10:25:36.402Z,12.00
2019-03-31T10:26:36.392Z,12.00
2019-03-31T10:27:36.372Z,11.88
2019-03-31T10:28:36.348Z,11.95
2019-03-31T10:29:36.327Z,12.02
2019-03-31T10:30:36.303Z,12.08
2019-03-31T10:31:36.289Z,12.21
2019-03-31T10:32:36.273Z,12.32
2019-03-31T10:33:36.249Z,12.39
2019-03-31T10:34:36.353Z,12.47
2019-03-31T10:35:36.233Z,12.57
2019-03-31T10:36:44.432Z,12.51
2019-03-31T10:37:36.177Z,12.58
2019-03-31T10:38:36.146Z,12.61
2019-03-31T10:39:36.215Z,12.62
2019-03-31T10:40:36.109Z,12.43
2019-03-31T10:41:36.091Z,12.47
2019-03-31T10:42:36.072Z,12.58
2019-03-31T10:43:36.066Z,12.32
2019-03-31T10:44:36.043Z,12.25
2019-03-31T10:45:36.017Z,12.36
2019-03-31T10:46:35.998Z,12.14
2019-03-31T10:47:35.982Z,12.21
2019-03-31T10:48:35.961Z,12.40
2019-03-31T10:49:35.941Z,12.47
2019-03-31T10:50:35.916Z,12.47
2019-03-31T10:51:35.895Z,12.48
2019-03-31T10:52:35.876Z,12.51
2019-03-31T10:53:35.868Z,12.47
2019-03-31T10:54:35.839Z,12.47
2019-03-31T10:55:35.828Z,12.57
2019-03-31T10:56:35.812Z,12.57
2019-03-31T10:57:35.786Z,12.61
2019-03-31T10:58:35.763Z,12.63
2019-03-31T10:59:35.742Z,12.69
2019-03-31T11:00:35.738Z,12.83
2019-03-31T11:01:35.718Z,12.75
2019-03-31T11:02:35.694Z,12.63
2019-03-31T11:03:35.677Z,12.68
2019-03-31T11:04:35.645Z,12.62
2019-03-31T11:05:35.636Z,12.78
2019-03-31T11:06:35.615Z,12.58
2019-03-31T11:07:35.598Z,12.57
2019-03-31T11:08:35.571Z,12.57
2019-03-31T11:09:35.557Z,12.36
2019-03-31T11:10:35.545Z,12.28
2019-03-31T11:11:35.524Z,12.35
2019-03-31T11:12:35.494Z,12.20
2019-03-31T11:13:35.475Z,12.20
2019-03-31T11:14:35.465Z,12.23
2019-03-31T11:15:35.441Z,12.12
2019-03-31T11:16:35.424Z,11.74
2019-03-31T11:17:35.401Z,11.62
2019-03-31T11:18:35.386Z,11.63
2019-03-31T11:19:35.358Z,11.59
2019-03-31T11:20:35.338Z,11.41
2019-03-31T11:21:35.328Z,11.33
2019-03-31T11:22:35.306Z,11.38
2019-03-31T11:23:35.294Z,11.52
2019-03-31T11:24:35.331Z,11.63
2019-03-31T11:25:35.242Z,11.70
2019-03-31T11:26:35.280Z,11.67
2019-03-31T11:27:35.227Z,11.71
2019-03-31T11:28:35.188Z,11.73
2019-03-31T11:29:35.163Z,11.86
2019-03-31T11:30:35.150Z,11.73
2019-03-31T11:31:35.124Z,11.74
2019-03-31T11:32:35.118Z,11.73
2019-03-31T11:33:35.093Z,11.68
2019-03-31T11:34:35.068Z,11.81
2019-03-31T11:35:35.044Z,11.60
2019-03-31T11:36:35.039Z,11.60
2019-03-31T11:37:35.002Z,11.62
2019-03-31T11:38:34.993Z,11.78
2019-03-31T11:39:34.963Z,11.60
2019-03-31T11:40:34.944Z,11.53
2019-03-31T11:41:34.932Z,11.45
2019-03-31T11:42:34.907Z,11.73
2019-03-31T11:43:34.882Z,11.68
2019-03-31T11:44:34.875Z,11.74
2019-03-31T11:45:34.859Z,11.81
2019-03-31T11:46:34.833Z,11.88
2019-03-31T11:47:34.811Z,12.17
2019-03-31T11:48:34.782Z,12.23
2019-03-31T11:49:34.760Z,12.15
2019-03-31T11:50:34.755Z,12.14
2019-03-31T11:51:34.724Z,12.03
2019-03-31T11:52:34.702Z,12.15
2019-03-31T11:53:34.683Z,12.40
2019-03-31T11:54:34.665Z,12.39
2019-03-31T11:55:34.662Z,12.55
2019-03-31T11:56:34.631Z,12.68
2019-03-31T11:57:34.613Z,12.63
2019-03-31T11:58:34.588Z,12.73
2019-03-31T11:59:34.564Z,12.87
2019-03-31T12:00:34.547Z,12.91
2019-03-31T12:01:34.528Z,13.12
2019-03-31T12:02:34.516Z,13.11
2019-03-31T12:03:34.499Z,12.84
2019-03-31T12:04:34.484Z,12.75
2019-03-31T12:05:34.453Z,12.57
2019-03-31T12:06:34.438Z,12.69
2019-03-31T12:07:45.967Z,12.75
2019-03-31T12:08:34.397Z,12.58
2019-03-31T12:09:34.376Z,12.62
2019-03-31T12:10:34.361Z,12.55
2019-03-31T12:11:34.348Z,12.57
2019-03-31T12:12:34.320Z,12.73
2019-03-31T12:13:34.298Z,12.63
2019-03-31T12:14:34.297Z,12.58
2019-03-31T12:15:34.260Z,12.55
2019-03-31T12:16:34.254Z,12.58
2019-03-31T12:17:34.221Z,12.72
2019-03-31T12:18:34.203Z,12.69
2019-03-31T12:19:34.190Z,12.86
2019-03-31T12:20:34.183Z,12.87
2019-03-31T12:21:34.152Z,13.05
2019-03-31T12:22:34.134Z,13.26
2019-03-31T12:23:34.111Z,13.20
2019-03-31T12:24:34.089Z,13.24
2019-03-31T12:25:34.092Z,13.46
2019-03-31T12:26:34.059Z,13.40
2019-03-31T12:27:34.035Z,13.40
2019-03-31T12:28:34.023Z,13.57
2019-03-31T12:29:33.997Z,13.54
2019-03-31T12:30:33.986Z,13.76
2019-03-31T12:31:33.965Z,14.03
2019-03-31T12:32:33.946Z,14.05
2019-03-31T12:33:33.940Z,13.94
2019-03-31T12:34:33.912Z,13.97
2019-03-31T12:35:33.886Z,14.03
2019-03-31T12:36:33.876Z,13.97
2019-03-31T12:37:42.209Z,14.07
2019-03-31T12:38:33.847Z,14.01
2019-03-31T12:39:33.818Z,14.03
2019-03-31T12:40:33.817Z,14.07
2019-03-31T12:41:33.783Z,13.98
2019-03-31T12:42:33.769Z,14.05
2019-03-31T12:43:33.752Z,13.86
2019-03-31T12:44:33.725Z,13.87
2019-03-31T12:45:33.722Z,13.98
2019-03-31T12:46:33.702Z,14.07
2019-03-31T12:47:33.676Z,14.01
2019-03-31T12:48:33.764Z,13.82
2019-03-31T12:49:33.643Z,13.58
2019-03-31T12:50:33.619Z,13.46
2019-03-31T12:51:33.600Z,13.46
2019-03-31T12:52:46.148Z,13.55
2019-03-31T12:53:33.577Z,13.58
2019-03-31T12:54:33.547Z,13.76
2019-03-31T12:55:33.547Z,13.78
2019-03-31T12:56:33.524Z,13.86
2019-03-31T12:57:33.504Z,13.91
2019-03-31T12:58:33.482Z,13.85